sensor_id;sensor_type;location;lat;lon;timestamp;P1;durP1;ratioP1;P2;durP2;ratioP2
22449;SDS011;11392;57.390;-2.468;2023-12-20T00:02:18;0.63;;;0.55;;
22449;SDS011;11392;57.390;-2.468;2023-12-20T00:04:45;3.75;;;1.35;;
22449;SDS011;11392;57.390;-2.468;2023-12-20T00:07:12;4.38;;;1.00;;
22449;SDS011;11392;57.390;-2.468;2023-12-20T00:09:39;3.90;;;1.17;;
22449;SDS011;11392;57.390;-2.468;2023-12-20T00:12:06;6.13;;;1.55;;
22449;SDS011;11392;57.390;-2.468;2023-12-20T00:14:34;8.38;;;1.40;;
22449;SDS011;11392;57.390;-2.468;2023-12-20T00:17:01;5.38;;;1.52;;
22449;SDS011;11392;57.390;-2.468;2023-12-20T00:19:28;7.35;;;1.75;;
22449;SDS011;11392;57.390;-2.468;2023-12-20T00:21:55;10.75;;;1.35;;
22449;SDS011;11392;57.390;-2.468;2023-12-20T00:24:22;6.13;;;2.17;;
22449;SDS011;11392;57.390;-2.468;2023-12-20T00:26:49;8.10;;;1.52;;
22449;SDS011;11392;57.390;-2.468;2023-12-20T00:29:16;5.50;;;1.75;;
22449;SDS011;11392;57.390;-2.468;2023-12-20T00:31:43;4.72;;;1.85;;
22449;SDS011;11392;57.390;-2.468;2023-12-20T00:34:10;6.05;;;1.40;;
22449;SDS011;11392;57.390;-2.468;2023-12-20T00:36:37;6.43;;;1.52;;
22449;SDS011;11392;57.390;-2.468;2023-12-20T00:39:04;9.02;;;2.03;;
22449;SDS011;11392;57.390;-2.468;2023-12-20T00:41:33;5.85;;;2.22;;
22449;SDS011;11392;57.390;-2.468;2023-12-20T00:44:00;8.75;;;2.10;;
22449;SDS011;11392;57.390;-2.468;2023-12-20T00:46:27;7.97;;;1.80;;
22449;SDS011;11392;57.390;-2.468;2023-12-20T00:48:54;10.98;;;2.80;;
22449;SDS011;11392;57.390;-2.468;2023-12-20T00:51:21;6.80;;;2.15;;
22449;SDS011;11392;57.390;-2.468;2023-12-20T00:53:49;6.13;;;1.85;;
22449;SDS011;11392;57.390;-2.468;2023-12-20T00:56:21;6.95;;;2.10;;
22449;SDS011;11392;57.390;-2.468;2023-12-20T00:58:48;6.20;;;1.88;;
22449;SDS011;11392;57.390;-2.468;2023-12-20T01:01:15;9.13;;;1.83;;
22449;SDS011;11392;57.390;-2.468;2023-12-20T01:03:44;8.23;;;2.08;;
22449;SDS011;11392;57.390;-2.468;2023-12-20T01:06:11;7.13;;;2.10;;
22449;SDS011;11392;57.390;-2.468;2023-12-20T01:08:38;9.15;;;2.40;;
22449;SDS011;11392;57.390;-2.468;2023-12-20T01:11:05;13.15;;;2.90;;
22449;SDS011;11392;57.390;-2.468;2023-12-20T01:13:32;5.55;;;2.40;;
22449;SDS011;11392;57.390;-2.468;2023-12-20T01:15:59;16.35;;;3.20;;
22449;SDS011;11392;57.390;-2.468;2023-12-20T01:18:27;12.85;;;2.90;;
22449;SDS011;11392;57.390;-2.468;2023-12-20T01:20:54;12.73;;;2.70;;
22449;SDS011;11392;57.390;-2.468;2023-12-20T01:23:21;11.55;;;2.85;;
22449;SDS011;11392;57.390;-2.468;2023-12-20T01:25:48;11.00;;;2.85;;
22449;SDS011;11392;57.390;-2.468;2023-12-20T01:28:16;11.95;;;2.80;;
22449;SDS011;11392;57.390;-2.468;2023-12-20T01:30:43;9.55;;;2.58;;
22449;SDS011;11392;57.390;-2.468;2023-12-20T01:33:11;10.18;;;2.92;;
22449;SDS011;11392;57.390;-2.468;2023-12-20T01:35:38;15.75;;;3.55;;
22449;SDS011;11392;57.390;-2.468;2023-12-20T01:38:05;19.17;;;5.38;;
22449;SDS011;11392;57.390;-2.468;2023-12-20T01:40:32;16.92;;;4.18;;
22449;SDS011;11392;57.390;-2.468;2023-12-20T01:42:59;18.35;;;5.25;;
22449;SDS011;11392;57.390;-2.468;2023-12-20T01:45:28;26.20;;;5.65;;
22449;SDS011;11392;57.390;-2.468;2023-12-20T01:47:55;20.77;;;4.95;;
22449;SDS011;11392;57.390;-2.468;2023-12-20T01:50:24;23.70;;;4.45;;
22449;SDS011;11392;57.390;-2.468;2023-12-20T01:52:52;21.75;;;5.55;;
22449;SDS011;11392;57.390;-2.468;2023-12-20T01:55:24;22.00;;;5.00;;
22449;SDS011;11392;57.390;-2.468;2023-12-20T01:57:52;23.05;;;5.53;;
22449;SDS011;11392;57.390;-2.468;2023-12-20T02:00:19;20.00;;;4.57;;
22449;SDS011;11392;57.390;-2.468;2023-12-20T02:02:50;30.38;;;6.20;;
22449;SDS011;11392;57.390;-2.468;2023-12-20T02:05:19;24.65;;;5.05;;
22449;SDS011;11392;57.390;-2.468;2023-12-20T02:07:47;18.55;;;4.40;;
22449;SDS011;11392;57.390;-2.468;2023-12-20T02:10:15;20.17;;;4.38;;
22449;SDS011;11392;57.390;-2.468;2023-12-20T02:12:42;18.27;;;4.20;;
22449;SDS011;11392;57.390;-2.468;2023-12-20T02:15:10;19.63;;;4.10;;
22449;SDS011;11392;57.390;-2.468;2023-12-20T02:17:40;14.23;;;4.50;;
22449;SDS011;11392;57.390;-2.468;2023-12-20T02:20:10;17.65;;;4.15;;
22449;SDS011;11392;57.390;-2.468;2023-12-20T02:22:39;17.13;;;4.00;;
22449;SDS011;11392;57.390;-2.468;2023-12-20T02:25:10;20.08;;;4.50;;
22449;SDS011;11392;57.390;-2.468;2023-12-20T02:27:39;21.58;;;4.95;;
22449;SDS011;11392;57.390;-2.468;2023-12-20T02:30:07;14.43;;;3.65;;
22449;SDS011;11392;57.390;-2.468;2023-12-20T02:32:34;19.52;;;4.55;;
22449;SDS011;11392;57.390;-2.468;2023-12-20T02:35:02;15.13;;;3.80;;
22449;SDS011;11392;57.390;-2.468;2023-12-20T02:37:29;13.27;;;4.00;;
22449;SDS011;11392;57.390;-2.468;2023-12-20T02:39:56;23.65;;;5.22;;
22449;SDS011;11392;57.390;-2.468;2023-12-20T02:42:23;13.00;;;4.50;;
22449;SDS011;11392;57.390;-2.468;2023-12-20T02:44:50;11.70;;;3.08;;
22449;SDS011;11392;57.390;-2.468;2023-12-20T02:47:17;10.90;;;4.20;;
22449;SDS011;11392;57.390;-2.468;2023-12-20T02:49:44;14.00;;;3.60;;
22449;SDS011;11392;57.390;-2.468;2023-12-20T02:52:11;15.40;;;3.90;;
22449;SDS011;11392;57.390;-2.468;2023-12-20T02:54:38;17.23;;;4.45;;
22449;SDS011;11392;57.390;-2.468;2023-12-20T02:57:06;9.77;;;2.97;;
22449;SDS011;11392;57.390;-2.468;2023-12-20T02:59:33;12.55;;;3.75;;
22449;SDS011;11392;57.390;-2.468;2023-12-20T03:02:00;8.77;;;3.05;;
22449;SDS011;11392;57.390;-2.468;2023-12-20T03:04:27;11.95;;;2.42;;
22449;SDS011;11392;57.390;-2.468;2023-12-20T03:06:54;7.10;;;2.00;;
22449;SDS011;11392;57.390;-2.468;2023-12-20T03:09:21;10.13;;;2.58;;
22449;SDS011;11392;57.390;-2.468;2023-12-20T03:11:48;7.72;;;2.00;;
22449;SDS011;11392;57.390;-2.468;2023-12-20T03:14:15;8.60;;;2.55;;
22449;SDS011;11392;57.390;-2.468;2023-12-20T03:16:46;14.20;;;2.53;;
22449;SDS011;11392;57.390;-2.468;2023-12-20T03:19:16;12.60;;;3.10;;
22449;SDS011;11392;57.390;-2.468;2023-12-20T03:21:44;9.77;;;3.40;;
22449;SDS011;11392;57.390;-2.468;2023-12-20T03:24:13;12.73;;;2.95;;
22449;SDS011;11392;57.390;-2.468;2023-12-20T03:26:40;9.90;;;2.88;;
22449;SDS011;11392;57.390;-2.468;2023-12-20T03:29:07;8.45;;;2.28;;
22449;SDS011;11392;57.390;-2.468;2023-12-20T03:31:34;7.95;;;2.20;;
22449;SDS011;11392;57.390;-2.468;2023-12-20T03:34:01;9.60;;;2.83;;
22449;SDS011;11392;57.390;-2.468;2023-12-20T03:36:29;7.38;;;2.13;;
22449;SDS011;11392;57.390;-2.468;2023-12-20T03:38:55;9.00;;;2.25;;
22449;SDS011;11392;57.390;-2.468;2023-12-20T03:41:23;12.77;;;2.95;;
22449;SDS011;11392;57.390;-2.468;2023-12-20T03:43:50;9.73;;;2.42;;
22449;SDS011;11392;57.390;-2.468;2023-12-20T03:46:17;7.50;;;2.22;;
22449;SDS011;11392;57.390;-2.468;2023-12-20T03:48:44;11.07;;;2.53;;
22449;SDS011;11392;57.390;-2.468;2023-12-20T03:51:11;7.47;;;2.40;;
22449;SDS011;11392;57.390;-2.468;2023-12-20T03:53:38;9.05;;;2.30;;
22449;SDS011;11392;57.390;-2.468;2023-12-20T03:56:07;8.73;;;2.88;;
22449;SDS011;11392;57.390;-2.468;2023-12-20T03:58:34;10.82;;;3.63;;
22449;SDS011;11392;57.390;-2.468;2023-12-20T04:01:01;10.88;;;3.33;;
22449;SDS011;11392;57.390;-2.468;2023-12-20T04:03:29;9.27;;;2.20;;
22449;SDS011;11392;57.390;-2.468;2023-12-20T04:05:56;10.38;;;2.13;;
22449;SDS011;11392;57.390;-2.468;2023-12-20T04:08:23;9.27;;;3.17;;
22449;SDS011;11392;57.390;-2.468;2023-12-20T04:10:50;7.28;;;2.25;;
22449;SDS011;11392;57.390;-2.468;2023-12-20T04:13:17;13.27;;;3.17;;
22449;SDS011;11392;57.390;-2.468;2023-12-20T04:15:44;8.52;;;2.30;;
22449;SDS011;11392;57.390;-2.468;2023-12-20T04:18:12;14.25;;;2.95;;
22449;SDS011;11392;57.390;-2.468;2023-12-20T04:20:39;12.57;;;3.10;;
22449;SDS011;11392;57.390;-2.468;2023-12-20T04:23:06;10.55;;;2.70;;
22449;SDS011;11392;57.390;-2.468;2023-12-20T04:25:33;18.70;;;3.63;;
22449;SDS011;11392;57.390;-2.468;2023-12-20T04:27:59;13.02;;;3.30;;
22449;SDS011;11392;57.390;-2.468;2023-12-20T04:30:26;13.40;;;3.58;;
22449;SDS011;11392;57.390;-2.468;2023-12-20T04:32:53;13.52;;;2.47;;
22449;SDS011;11392;57.390;-2.468;2023-12-20T04:35:20;11.43;;;2.50;;
22449;SDS011;11392;57.390;-2.468;2023-12-20T04:37:47;11.90;;;4.03;;
22449;SDS011;11392;57.390;-2.468;2023-12-20T04:40:16;8.63;;;2.53;;
22449;SDS011;11392;57.390;-2.468;2023-12-20T04:42:43;11.70;;;3.05;;
22449;SDS011;11392;57.390;-2.468;2023-12-20T04:45:10;10.73;;;2.85;;
22449;SDS011;11392;57.390;-2.468;2023-12-20T04:47:39;9.80;;;2.78;;
22449;SDS011;11392;57.390;-2.468;2023-12-20T04:50:07;8.88;;;2.80;;
22449;SDS011;11392;57.390;-2.468;2023-12-20T04:52:36;12.63;;;3.25;;
22449;SDS011;11392;57.390;-2.468;2023-12-20T04:55:03;11.57;;;2.95;;
22449;SDS011;11392;57.390;-2.468;2023-12-20T04:57:30;13.52;;;2.75;;
22449;SDS011;11392;57.390;-2.468;2023-12-20T04:59:57;10.18;;;2.83;;
22449;SDS011;11392;57.390;-2.468;2023-12-20T05:02:24;12.88;;;3.60;;
22449;SDS011;11392;57.390;-2.468;2023-12-20T05:04:51;7.15;;;2.28;;
22449;SDS011;11392;57.390;-2.468;2023-12-20T05:07:21;7.55;;;2.75;;
22449;SDS011;11392;57.390;-2.468;2023-12-20T05:09:48;10.88;;;2.70;;
22449;SDS011;11392;57.390;-2.468;2023-12-20T05:12:15;11.60;;;3.78;;
22449;SDS011;11392;57.390;-2.468;2023-12-20T05:14:42;11.77;;;2.80;;
22449;SDS011;11392;57.390;-2.468;2023-12-20T05:17:09;7.68;;;2.60;;
22449;SDS011;11392;57.390;-2.468;2023-12-20T05:19:36;8.90;;;2.60;;
22449;SDS011;11392;57.390;-2.468;2023-12-20T05:22:03;12.32;;;3.20;;
22449;SDS011;11392;57.390;-2.468;2023-12-20T05:24:30;12.90;;;2.97;;
22449;SDS011;11392;57.390;-2.468;2023-12-20T05:26:57;10.60;;;3.38;;
22449;SDS011;11392;57.390;-2.468;2023-12-20T05:29:24;26.20;;;4.45;;
22449;SDS011;11392;57.390;-2.468;2023-12-20T05:31:51;14.98;;;4.13;;
22449;SDS011;11392;57.390;-2.468;2023-12-20T05:34:18;8.05;;;2.85;;
22449;SDS011;11392;57.390;-2.468;2023-12-20T05:36:46;15.38;;;4.70;;
22449;SDS011;11392;57.390;-2.468;2023-12-20T05:39:13;20.73;;;4.43;;
22449;SDS011;11392;57.390;-2.468;2023-12-20T05:41:40;16.75;;;3.83;;
22449;SDS011;11392;57.390;-2.468;2023-12-20T05:44:07;13.02;;;5.07;;
22449;SDS011;11392;57.390;-2.468;2023-12-20T05:46:35;18.45;;;4.28;;
22449;SDS011;11392;57.390;-2.468;2023-12-20T05:49:02;19.70;;;3.80;;
22449;SDS011;11392;57.390;-2.468;2023-12-20T05:51:29;23.90;;;4.03;;
22449;SDS011;11392;57.390;-2.468;2023-12-20T05:53:57;13.55;;;3.50;;
22449;SDS011;11392;57.390;-2.468;2023-12-20T05:56:24;15.45;;;3.38;;
22449;SDS011;11392;57.390;-2.468;2023-12-20T05:58:51;14.82;;;4.32;;
22449;SDS011;11392;57.390;-2.468;2023-12-20T06:01:17;14.38;;;3.58;;
22449;SDS011;11392;57.390;-2.468;2023-12-20T06:03:45;12.02;;;3.75;;
22449;SDS011;11392;57.390;-2.468;2023-12-20T06:06:14;19.73;;;4.45;;
22449;SDS011;11392;57.390;-2.468;2023-12-20T06:08:43;15.70;;;4.28;;
22449;SDS011;11392;57.390;-2.468;2023-12-20T06:11:10;11.98;;;3.50;;
22449;SDS011;11392;57.390;-2.468;2023-12-20T06:13:37;11.98;;;3.22;;
22449;SDS011;11392;57.390;-2.468;2023-12-20T06:16:08;18.45;;;4.65;;
22449;SDS011;11392;57.390;-2.468;2023-12-20T06:18:35;16.52;;;3.80;;
22449;SDS011;11392;57.390;-2.468;2023-12-20T06:21:03;16.90;;;4.65;;
22449;SDS011;11392;57.390;-2.468;2023-12-20T06:23:31;22.27;;;3.97;;
22449;SDS011;11392;57.390;-2.468;2023-12-20T06:25:58;15.88;;;3.47;;
22449;SDS011;11392;57.390;-2.468;2023-12-20T06:28:25;12.88;;;3.85;;
22449;SDS011;11392;57.390;-2.468;2023-12-20T06:30:52;15.35;;;3.75;;
22449;SDS011;11392;57.390;-2.468;2023-12-20T06:33:21;10.50;;;3.00;;
22449;SDS011;11392;57.390;-2.468;2023-12-20T06:35:49;17.73;;;3.47;;
22449;SDS011;11392;57.390;-2.468;2023-12-20T06:38:17;10.25;;;3.28;;
22449;SDS011;11392;57.390;-2.468;2023-12-20T06:40:44;15.05;;;4.07;;
22449;SDS011;11392;57.390;-2.468;2023-12-20T06:43:12;12.90;;;3.78;;
22449;SDS011;11392;57.390;-2.468;2023-12-20T06:45:57;10.07;;;3.08;;
22449;SDS011;11392;57.390;-2.468;2023-12-20T06:48:25;22.38;;;3.92;;
22449;SDS011;11392;57.390;-2.468;2023-12-20T06:50:52;13.52;;;4.22;;
22449;SDS011;11392;57.390;-2.468;2023-12-20T06:53:19;13.32;;;3.28;;
22449;SDS011;11392;57.390;-2.468;2023-12-20T06:55:46;10.73;;;3.90;;
22449;SDS011;11392;57.390;-2.468;2023-12-20T06:58:13;13.38;;;3.40;;
22449;SDS011;11392;57.390;-2.468;2023-12-20T07:00:41;12.55;;;3.75;;
22449;SDS011;11392;57.390;-2.468;2023-12-20T07:03:09;14.43;;;3.47;;
22449;SDS011;11392;57.390;-2.468;2023-12-20T07:05:36;21.60;;;5.72;;
22449;SDS011;11392;57.390;-2.468;2023-12-20T07:08:03;13.48;;;3.42;;
22449;SDS011;11392;57.390;-2.468;2023-12-20T07:10:30;16.10;;;4.05;;
22449;SDS011;11392;57.390;-2.468;2023-12-20T07:12:57;14.13;;;3.28;;
22449;SDS011;11392;57.390;-2.468;2023-12-20T07:15:25;14.25;;;3.78;;
22449;SDS011;11392;57.390;-2.468;2023-12-20T07:17:53;14.27;;;3.92;;
22449;SDS011;11392;57.390;-2.468;2023-12-20T07:20:21;8.15;;;2.72;;
22449;SDS011;11392;57.390;-2.468;2023-12-20T07:22:48;11.25;;;3.63;;
22449;SDS011;11392;57.390;-2.468;2023-12-20T07:25:15;11.38;;;2.90;;
22449;SDS011;11392;57.390;-2.468;2023-12-20T07:27:42;19.02;;;3.65;;
22449;SDS011;11392;57.390;-2.468;2023-12-20T07:30:11;9.50;;;2.78;;
22449;SDS011;11392;57.390;-2.468;2023-12-20T07:32:38;10.07;;;2.47;;
22449;SDS011;11392;57.390;-2.468;2023-12-20T07:35:06;15.73;;;4.07;;
22449;SDS011;11392;57.390;-2.468;2023-12-20T07:37:34;12.48;;;3.35;;
22449;SDS011;11392;57.390;-2.468;2023-12-20T07:40:01;12.75;;;3.45;;
22449;SDS011;11392;57.390;-2.468;2023-12-20T07:42:29;13.13;;;3.38;;
22449;SDS011;11392;57.390;-2.468;2023-12-20T07:44:57;20.33;;;4.25;;
22449;SDS011;11392;57.390;-2.468;2023-12-20T07:47:24;11.15;;;3.25;;
22449;SDS011;11392;57.390;-2.468;2023-12-20T07:49:51;12.40;;;2.85;;
22449;SDS011;11392;57.390;-2.468;2023-12-20T07:52:19;13.40;;;2.83;;
22449;SDS011;11392;57.390;-2.468;2023-12-20T07:54:48;7.90;;;2.83;;
22449;SDS011;11392;57.390;-2.468;2023-12-20T07:57:17;8.57;;;2.92;;
22449;SDS011;11392;57.390;-2.468;2023-12-20T07:59:44;7.35;;;3.97;;
22449;SDS011;11392;57.390;-2.468;2023-12-20T08:02:11;7.90;;;2.65;;
22449;SDS011;11392;57.390;-2.468;2023-12-20T08:04:38;9.95;;;2.45;;
22449;SDS011;11392;57.390;-2.468;2023-12-20T08:07:05;6.07;;;2.90;;
22449;SDS011;11392;57.390;-2.468;2023-12-20T08:09:33;11.90;;;3.05;;
22449;SDS011;11392;57.390;-2.468;2023-12-20T08:12:03;12.25;;;2.60;;
22449;SDS011;11392;57.390;-2.468;2023-12-20T08:14:30;6.35;;;2.25;;
22449;SDS011;11392;57.390;-2.468;2023-12-20T08:16:58;11.35;;;2.08;;
22449;SDS011;11392;57.390;-2.468;2023-12-20T08:19:25;8.82;;;1.85;;
22449;SDS011;11392;57.390;-2.468;2023-12-20T08:21:52;9.57;;;2.85;;
22449;SDS011;11392;57.390;-2.468;2023-12-20T08:24:19;7.72;;;2.13;;
22449;SDS011;11392;57.390;-2.468;2023-12-20T08:26:46;7.60;;;2.22;;
22449;SDS011;11392;57.390;-2.468;2023-12-20T08:29:13;4.57;;;1.55;;
22449;SDS011;11392;57.390;-2.468;2023-12-20T08:31:40;5.30;;;2.08;;
22449;SDS011;11392;57.390;-2.468;2023-12-20T08:34:07;4.47;;;1.70;;
22449;SDS011;11392;57.390;-2.468;2023-12-20T08:36:35;7.40;;;2.10;;
22449;SDS011;11392;57.390;-2.468;2023-12-20T08:39:02;7.18;;;1.95;;
22449;SDS011;11392;57.390;-2.468;2023-12-20T08:41:32;6.07;;;1.95;;
22449;SDS011;11392;57.390;-2.468;2023-12-20T08:43:59;2.72;;;1.40;;
22449;SDS011;11392;57.390;-2.468;2023-12-20T08:46:26;4.43;;;1.63;;
22449;SDS011;11392;57.390;-2.468;2023-12-20T08:48:54;7.75;;;1.88;;
22449;SDS011;11392;57.390;-2.468;2023-12-20T08:51:21;4.85;;;1.42;;
22449;SDS011;11392;57.390;-2.468;2023-12-20T08:53:50;6.57;;;1.60;;
22449;SDS011;11392;57.390;-2.468;2023-12-20T08:56:17;2.60;;;1.20;;
22449;SDS011;11392;57.390;-2.468;2023-12-20T08:58:44;3.20;;;1.50;;
22449;SDS011;11392;57.390;-2.468;2023-12-20T09:01:14;3.53;;;1.10;;
22449;SDS011;11392;57.390;-2.468;2023-12-20T09:03:42;2.67;;;0.90;;
22449;SDS011;11392;57.390;-2.468;2023-12-20T09:06:10;2.10;;;0.90;;
22449;SDS011;11392;57.390;-2.468;2023-12-20T09:08:37;3.08;;;1.10;;
22449;SDS011;11392;57.390;-2.468;2023-12-20T09:11:04;2.40;;;0.82;;
22449;SDS011;11392;57.390;-2.468;2023-12-20T09:13:31;4.88;;;1.00;;
22449;SDS011;11392;57.390;-2.468;2023-12-20T09:15:59;4.45;;;0.95;;
22449;SDS011;11392;57.390;-2.468;2023-12-20T09:18:26;3.95;;;0.85;;
22449;SDS011;11392;57.390;-2.468;2023-12-20T09:20:54;4.28;;;1.23;;
22449;SDS011;11392;57.390;-2.468;2023-12-20T09:23:21;2.70;;;1.13;;
22449;SDS011;11392;57.390;-2.468;2023-12-20T09:25:48;2.28;;;1.15;;
22449;SDS011;11392;57.390;-2.468;2023-12-20T09:28:15;4.18;;;1.20;;
22449;SDS011;11392;57.390;-2.468;2023-12-20T09:30:43;3.85;;;1.13;;
22449;SDS011;11392;57.390;-2.468;2023-12-20T09:33:12;2.63;;;0.98;;
22449;SDS011;11392;57.390;-2.468;2023-12-20T09:35:39;3.97;;;1.35;;
22449;SDS011;11392;57.390;-2.468;2023-12-20T09:38:06;4.43;;;1.52;;
22449;SDS011;11392;57.390;-2.468;2023-12-20T09:40:34;3.15;;;1.40;;
22449;SDS011;11392;57.390;-2.468;2023-12-20T09:43:08;5.07;;;1.48;;
22449;SDS011;11392;57.390;-2.468;2023-12-20T09:45:40;6.25;;;1.38;;
22449;SDS011;11392;57.390;-2.468;2023-12-20T09:48:08;7.03;;;1.63;;
22449;SDS011;11392;57.390;-2.468;2023-12-20T09:50:38;3.70;;;1.35;;
22449;SDS011;11392;57.390;-2.468;2023-12-20T09:53:07;3.38;;;1.17;;
22449;SDS011;11392;57.390;-2.468;2023-12-20T09:55:36;5.22;;;1.48;;
22449;SDS011;11392;57.390;-2.468;2023-12-20T09:58:04;4.40;;;1.27;;
22449;SDS011;11392;57.390;-2.468;2023-12-20T10:00:32;4.22;;;1.50;;
22449;SDS011;11392;57.390;-2.468;2023-12-20T10:03:00;4.13;;;1.20;;
22449;SDS011;11392;57.390;-2.468;2023-12-20T10:05:28;5.90;;;1.80;;
22449;SDS011;11392;57.390;-2.468;2023-12-20T10:07:57;4.30;;;1.20;;
22449;SDS011;11392;57.390;-2.468;2023-12-20T10:10:26;4.38;;;1.00;;
22449;SDS011;11392;57.390;-2.468;2023-12-20T10:13:10;2.38;;;1.27;;
22449;SDS011;11392;57.390;-2.468;2023-12-20T10:15:39;3.42;;;1.60;;
22449;SDS011;11392;57.390;-2.468;2023-12-20T10:18:08;7.07;;;2.45;;
22449;SDS011;11392;57.390;-2.468;2023-12-20T10:20:35;4.53;;;1.10;;
22449;SDS011;11392;57.390;-2.468;2023-12-20T10:23:03;4.32;;;1.15;;
22449;SDS011;11392;57.390;-2.468;2023-12-20T10:25:30;3.17;;;1.20;;
22449;SDS011;11392;57.390;-2.468;2023-12-20T10:28:08;2.65;;;1.15;;
22449;SDS011;11392;57.390;-2.468;2023-12-20T10:30:37;5.35;;;1.15;;
22449;SDS011;11392;57.390;-2.468;2023-12-20T10:33:08;2.17;;;1.00;;
22449;SDS011;11392;57.390;-2.468;2023-12-20T10:35:37;5.35;;;1.02;;
22449;SDS011;11392;57.390;-2.468;2023-12-20T10:38:11;1.80;;;1.02;;
22449;SDS011;11392;57.390;-2.468;2023-12-20T10:40:40;1.95;;;0.85;;
22449;SDS011;11392;57.390;-2.468;2023-12-20T10:43:08;3.47;;;0.80;;
22449;SDS011;11392;57.390;-2.468;2023-12-20T10:45:36;2.92;;;1.10;;
22449;SDS011;11392;57.390;-2.468;2023-12-20T10:48:03;2.45;;;1.02;;
22449;SDS011;11392;57.390;-2.468;2023-12-20T10:50:31;4.15;;;1.20;;
22449;SDS011;11392;57.390;-2.468;2023-12-20T10:52:58;2.17;;;0.70;;
22449;SDS011;11392;57.390;-2.468;2023-12-20T10:55:27;3.90;;;1.02;;
22449;SDS011;11392;57.390;-2.468;2023-12-20T10:58:08;2.88;;;1.00;;
22449;SDS011;11392;57.390;-2.468;2023-12-20T11:00:41;3.25;;;0.95;;
22449;SDS011;11392;57.390;-2.468;2023-12-20T11:03:12;2.10;;;0.80;;
22449;SDS011;11392;57.390;-2.468;2023-12-20T11:05:46;2.63;;;0.88;;
22449;SDS011;11392;57.390;-2.468;2023-12-20T11:08:22;4.80;;;1.10;;
22449;SDS011;11392;57.390;-2.468;2023-12-20T11:11:00;1.60;;;0.82;;
22449;SDS011;11392;57.390;-2.468;2023-12-20T11:13:44;1.20;;;1.10;;
22449;SDS011;11392;57.390;-2.468;2023-12-20T11:16:20;3.40;;;1.10;;
22449;SDS011;11392;57.390;-2.468;2023-12-20T11:18:51;4.68;;;1.30;;
22449;SDS011;11392;57.390;-2.468;2023-12-20T11:21:19;3.17;;;1.10;;
22449;SDS011;11392;57.390;-2.468;2023-12-20T11:23:46;1.13;;;0.80;;
22449;SDS011;11392;57.390;-2.468;2023-12-20T11:26:15;2.13;;;0.80;;
22449;SDS011;11392;57.390;-2.468;2023-12-20T11:28:43;2.50;;;1.02;;
22449;SDS011;11392;57.390;-2.468;2023-12-20T11:31:12;3.17;;;0.90;;
22449;SDS011;11392;57.390;-2.468;2023-12-20T11:33:42;3.28;;;1.15;;
22449;SDS011;11392;57.390;-2.468;2023-12-20T11:36:14;4.13;;;1.60;;
22449;SDS011;11392;57.390;-2.468;2023-12-20T11:38:50;3.35;;;1.33;;
22449;SDS011;11392;57.390;-2.468;2023-12-20T11:41:24;5.32;;;2.10;;
22449;SDS011;11392;57.390;-2.468;2023-12-20T11:43:55;6.18;;;1.92;;
22449;SDS011;11392;57.390;-2.468;2023-12-20T11:46:22;3.47;;;1.52;;
22449;SDS011;11392;57.390;-2.468;2023-12-20T11:48:50;5.43;;;1.40;;
22449;SDS011;11392;57.390;-2.468;2023-12-20T11:51:17;5.60;;;1.73;;
22449;SDS011;11392;57.390;-2.468;2023-12-20T11:53:44;6.35;;;3.00;;
22449;SDS011;11392;57.390;-2.468;2023-12-20T11:56:17;6.70;;;1.55;;
22449;SDS011;11392;57.390;-2.468;2023-12-20T11:58:44;7.47;;;2.60;;
22449;SDS011;11392;57.390;-2.468;2023-12-20T12:01:14;6.30;;;1.50;;
22449;SDS011;11392;57.390;-2.468;2023-12-20T12:03:41;3.50;;;1.55;;
22449;SDS011;11392;57.390;-2.468;2023-12-20T12:06:09;4.95;;;1.35;;
22449;SDS011;11392;57.390;-2.468;2023-12-20T12:08:36;4.70;;;1.70;;
22449;SDS011;11392;57.390;-2.468;2023-12-20T12:11:04;8.25;;;1.85;;
22449;SDS011;11392;57.390;-2.468;2023-12-20T12:13:31;6.95;;;1.75;;
22449;SDS011;11392;57.390;-2.468;2023-12-20T12:15:58;4.55;;;1.77;;
22449;SDS011;11392;57.390;-2.468;2023-12-20T12:18:26;4.90;;;1.30;;
22449;SDS011;11392;57.390;-2.468;2023-12-20T12:20:59;4.78;;;1.60;;
22449;SDS011;11392;57.390;-2.468;2023-12-20T12:23:27;5.38;;;2.10;;
22449;SDS011;11392;57.390;-2.468;2023-12-20T12:25:54;4.97;;;1.67;;
22449;SDS011;11392;57.390;-2.468;2023-12-20T12:28:25;3.67;;;1.90;;
22449;SDS011;11392;57.390;-2.468;2023-12-20T12:30:58;7.10;;;2.03;;
22449;SDS011;11392;57.390;-2.468;2023-12-20T12:33:26;6.32;;;2.72;;
22449;SDS011;11392;57.390;-2.468;2023-12-20T12:35:54;5.97;;;2.38;;
22449;SDS011;11392;57.390;-2.468;2023-12-20T12:38:21;5.10;;;1.83;;
22449;SDS011;11392;57.390;-2.468;2023-12-20T12:40:49;4.53;;;2.33;;
22449;SDS011;11392;57.390;-2.468;2023-12-20T12:43:16;7.18;;;2.28;;
22449;SDS011;11392;57.390;-2.468;2023-12-20T12:45:43;5.63;;;2.60;;
22449;SDS011;11392;57.390;-2.468;2023-12-20T12:48:11;6.55;;;2.40;;
22449;SDS011;11392;57.390;-2.468;2023-12-20T12:50:38;4.20;;;2.58;;
22449;SDS011;11392;57.390;-2.468;2023-12-20T12:53:05;7.00;;;2.42;;
22449;SDS011;11392;57.390;-2.468;2023-12-20T12:55:32;5.15;;;2.95;;
22449;SDS011;11392;57.390;-2.468;2023-12-20T12:58:01;7.13;;;2.80;;
22449;SDS011;11392;57.390;-2.468;2023-12-20T13:00:28;6.25;;;2.63;;
22449;SDS011;11392;57.390;-2.468;2023-12-20T13:02:55;6.10;;;2.95;;
22449;SDS011;11392;57.390;-2.468;2023-12-20T13:05:22;7.30;;;2.65;;
22449;SDS011;11392;57.390;-2.468;2023-12-20T13:07:50;5.28;;;2.35;;
22449;SDS011;11392;57.390;-2.468;2023-12-20T13:10:17;5.90;;;3.42;;
22449;SDS011;11392;57.390;-2.468;2023-12-20T13:12:44;5.47;;;2.30;;
22449;SDS011;11392;57.390;-2.468;2023-12-20T13:15:12;6.53;;;2.60;;
22449;SDS011;11392;57.390;-2.468;2023-12-20T13:17:39;3.97;;;2.35;;
22449;SDS011;11392;57.390;-2.468;2023-12-20T13:20:07;5.07;;;2.10;;
22449;SDS011;11392;57.390;-2.468;2023-12-20T13:22:35;5.55;;;2.47;;
22449;SDS011;11392;57.390;-2.468;2023-12-20T13:25:02;3.50;;;1.83;;
22449;SDS011;11392;57.390;-2.468;2023-12-20T13:27:29;4.28;;;2.00;;
22449;SDS011;11392;57.390;-2.468;2023-12-20T13:29:57;2.55;;;1.60;;
22449;SDS011;11392;57.390;-2.468;2023-12-20T13:32:24;3.38;;;1.50;;
22449;SDS011;11392;57.390;-2.468;2023-12-20T13:34:52;4.13;;;1.83;;
22449;SDS011;11392;57.390;-2.468;2023-12-20T13:37:19;4.70;;;1.42;;
22449;SDS011;11392;57.390;-2.468;2023-12-20T13:39:47;3.92;;;1.80;;
22449;SDS011;11392;57.390;-2.468;2023-12-20T13:42:14;4.50;;;1.88;;
22449;SDS011;11392;57.390;-2.468;2023-12-20T13:44:42;6.55;;;2.03;;
22449;SDS011;11392;57.390;-2.468;2023-12-20T13:47:10;4.55;;;1.92;;
22449;SDS011;11392;57.390;-2.468;2023-12-20T13:49:37;5.05;;;1.35;;
22449;SDS011;11392;57.390;-2.468;2023-12-20T13:52:04;1.98;;;1.35;;
22449;SDS011;11392;57.390;-2.468;2023-12-20T13:54:32;2.10;;;1.73;;
22449;SDS011;11392;57.390;-2.468;2023-12-20T13:56:59;2.25;;;1.67;;
22449;SDS011;11392;57.390;-2.468;2023-12-20T13:59:41;2.75;;;1.55;;
22449;SDS011;11392;57.390;-2.468;2023-12-20T14:02:08;2.50;;;1.20;;
22449;SDS011;11392;57.390;-2.468;2023-12-20T14:04:35;3.88;;;1.90;;
22449;SDS011;11392;57.390;-2.468;2023-12-20T14:07:09;1.20;;;1.02;;
22449;SDS011;11392;57.390;-2.468;2023-12-20T14:09:39;1.02;;;0.90;;
22449;SDS011;11392;57.390;-2.468;2023-12-20T14:12:12;0.70;;;0.60;;
22449;SDS011;11392;57.390;-2.468;2023-12-20T14:14:41;0.88;;;0.50;;
22449;SDS011;11392;57.390;-2.468;2023-12-20T14:17:08;0.73;;;0.30;;
22449;SDS011;11392;57.390;-2.468;2023-12-20T14:19:35;0.57;;;0.35;;
22449;SDS011;11392;57.390;-2.468;2023-12-20T14:22:02;0.10;;;0.10;;
22449;SDS011;11392;57.390;-2.468;2023-12-20T14:24:30;0.17;;;0.10;;
22449;SDS011;11392;57.390;-2.468;2023-12-20T14:26:58;0.20;;;0.20;;
22449;SDS011;11392;57.390;-2.468;2023-12-20T14:29:25;0.10;;;0.10;;
22449;SDS011;11392;57.390;-2.468;2023-12-20T14:31:53;0.08;;;0.08;;
22449;SDS011;11392;57.390;-2.468;2023-12-20T14:34:20;0.10;;;0.10;;